createdAt,value
2023-04-02T01:30:24.198Z,99686.84
2023-04-02T01:33:47.104Z,99686.84
2023-04-02T01:35:11.519Z,99686.84
2023-04-02T01:38:52.746Z,99691.58
2023-04-02T01:43:51.776Z,99693.45
2023-04-02T01:48:46.518Z,99701.67
2023-04-02T01:53:46.628Z,99708.45000000001
2023-04-02T01:58:33.212Z,99710.69
2023-04-02T01:58:48.411Z,99710.69
2023-04-02T02:03:44.054Z,99712.64
2023-04-02T02:03:48.426Z,99712.64
2023-04-02T02:08:49.945Z,99721.51
2023-04-02T02:13:47.058Z,99725.25
2023-04-02T02:16:44.965Z,99733.29
2023-04-02T02:18:50.004Z,99733.29
2023-04-02T02:22:08.837Z,99735.23
2023-04-02T02:24:04.005Z,99735.23
2023-04-02T02:28:52.749Z,99741.09
2023-04-02T02:33:50.652Z,99748.25
2023-04-02T02:38:54.222Z,99744.64
2023-04-02T02:43:55.083Z,99751.2
2023-04-02T02:48:47.635Z,99754.74
2023-04-02T02:53:51.708Z,99758.84
2023-04-02T02:58:46.761Z,99759.25
2023-04-02T03:03:48.383Z,99763.12000000001
2023-04-02T03:08:53.670Z,99770.0
2023-04-02T03:13:49.935Z,99776.04
2023-04-02T03:18:02.447Z,99780.54
2023-04-02T03:18:53.519Z,99780.54
2023-04-02T03:23:50.089Z,99786.87999999999
2023-04-02T03:28:51.430Z,99791.94
2023-04-02T03:33:50.179Z,99793.11
2023-04-02T03:38:51.029Z,99804.86
2023-04-02T03:43:51.204Z,99813.61
2023-04-02T03:48:49.928Z,99821.72
2023-04-02T03:53:47.901Z,99836.5
2023-04-02T03:58:52.938Z,99839.86
2023-04-02T04:03:50.078Z,99848.68000000001
2023-04-02T04:08:53.546Z,99849.08
2023-04-02T04:13:53.597Z,99856.08
2023-04-02T04:18:51.553Z,99856.56
2023-04-02T04:23:49.991Z,99868.26999999999
2023-04-02T04:27:08.518Z,99877.69
2023-04-02T04:28:57.540Z,99877.69
2023-04-02T04:33:53.758Z,99887.87
2023-04-02T04:38:54.296Z,99888.59
2023-04-02T04:43:51.301Z,99897.74
2023-04-02T04:48:52.608Z,99902.11
2023-04-02T04:50:27.936Z,99911.25
2023-04-02T04:53:49.222Z,99911.25
2023-04-02T04:58:51.845Z,99920.6
2023-04-02T05:03:53.017Z,99929.35
2023-04-02T05:08:50.683Z,99940.26
2023-04-02T05:13:51.838Z,99944.59000000001
2023-04-02T05:18:49.750Z,99949.15999999999
2023-04-02T05:22:30.526Z,99948.65999999999
2023-04-02T05:23:50.717Z,99948.65999999999
2023-04-02T05:28:53.618Z,99951.39
2023-04-02T05:33:48.056Z,99967.75
2023-04-02T05:38:48.158Z,99971.55
2023-04-02T05:40:54.223Z,99976.95
2023-04-02T05:43:50.037Z,99976.95
2023-04-02T05:48:50.640Z,99981.36
2023-04-02T05:53:50.780Z,99993.12999999999
2023-04-02T05:58:50.384Z,100002.03
2023-04-02T06:03:33.115Z,100010.42
2023-04-02T06:03:52.754Z,100010.42
2023-04-02T06:08:51.414Z,100019.12999999999
2023-04-02T06:13:46.622Z,100019.48
2023-04-02T06:14:10.826Z,100019.48
2023-04-02T06:19:41.847Z,100035.39
2023-04-02T06:23:14.565Z,100049.84
2023-04-02T06:24:57.427Z,100049.84
2023-04-02T06:28:14.990Z,100063.83
2023-04-02T06:29:56.101Z,100063.83
2023-04-02T06:33:11.770Z,100075.0
2023-04-02T06:35:19.629Z,100075.0
2023-04-02T06:38:18.394Z,100071.65
2023-04-02T06:42:22.334Z,100071.65
2023-04-02T06:43:16.628Z,100072.22
2023-04-02T06:47:29.620Z,100072.22
2023-04-02T06:49:19.202Z,100089.28
2023-04-02T06:49:24.626Z,100089.28
2023-04-02T06:49:32.133Z,100089.28
2023-04-02T06:53:19.736Z,100086.5
2023-04-02T06:54:42.656Z,100086.5
2023-04-02T06:56:41.186Z,100086.5
2023-04-02T06:56:55.244Z,100086.5
2023-04-02T06:58:09.935Z,100098.95
2023-04-02T07:03:14.823Z,100111.79
2023-04-02T10:32:08.556Z,100340.32999999999
2023-04-02T10:33:02.316Z,100340.32999999999
2023-04-02T10:37:47.941Z,100344.41
2023-04-02T10:38:06.067Z,100344.41
2023-04-02T10:43:15.961Z,100352.29000000001
2023-04-02T10:44:31.402Z,100352.29000000001
2023-04-02T10:48:05.001Z,100360.42
2023-04-02T10:53:06.537Z,100359.38
2023-04-02T10:58:02.001Z,100373.67
2023-04-02T11:03:01.627Z,100387.61
2023-04-02T11:07:42.690Z,100395.28
2023-04-02T11:08:01.744Z,100395.28
2023-04-02T11:13:01.225Z,100412.27
2023-04-02T11:16:57.971Z,100413.28
2023-04-02T11:17:57.030Z,100413.28
2023-04-02T11:23:04.147Z,100409.82
2023-04-02T11:26:14.062Z,100409.82
2023-04-02T11:28:14.519Z,100411.05
2023-04-02T11:32:26.394Z,100423.36
2023-04-02T12:36:54.014Z,100494.11
2023-04-02T12:41:48.619Z,100490.37
2023-04-02T12:46:49.931Z,100496.46
2023-04-02T12:51:49.070Z,100500.67
2023-04-02T12:56:49.636Z,100508.42
2023-04-02T13:01:56.086Z,100523.65999999999
2023-04-02T13:06:51.149Z,100533.37
2023-04-02T13:11:48.357Z,100529.13
2023-04-02T13:16:48.646Z,100536.13
2023-04-02T13:21:48.566Z,100544.96
2023-04-02T13:26:51.393Z,100553.68999999999
2023-04-02T13:31:49.390Z,100557.25
2023-04-02T13:36:48.229Z,100564.18
2023-04-02T13:41:52.776Z,100561.04000000001
2023-04-02T13:46:48.522Z,100569.03
2023-04-02T13:51:50.808Z,100575.97
2023-04-02T13:56:48.545Z,100572.27
2023-04-02T14:01:51.519Z,100583.91
2023-04-02T14:07:08.144Z,100583.86
2023-04-02T14:11:53.869Z,100588.61
2023-04-02T14:12:07.068Z,100588.61
2023-04-02T14:16:58.177Z,100587.98000000001
2023-04-02T14:21:59.868Z,100597.54000000001
2023-04-02T14:26:59.073Z,100606.22
2023-04-02T14:31:58.520Z,100619.06999999999
2023-04-02T14:36:57.701Z,100627.19
2023-04-02T14:41:54.626Z,100630.26
2023-04-02T14:46:48.998Z,100635.03
2023-04-02T14:51:52.932Z,100642.61
2023-04-02T14:55:42.776Z,100648.8
2023-04-02T14:56:51.460Z,100648.8
2023-04-02T15:01:51.637Z,100655.83
2023-04-02T15:06:52.091Z,100672.28
2023-04-02T15:11:51.691Z,100673.58
2023-04-02T15:16:48.420Z,100681.25
2023-04-02T15:22:02.894Z,100686.87999999999
2023-04-02T15:26:54.997Z,100695.86
2023-04-02T15:31:50.442Z,100704.39
2023-04-02T15:36:59.320Z,100710.22
2023-04-02T15:42:01.210Z,100716.89
2023-04-02T15:46:58.676Z,100719.20999999999
2023-04-02T15:52:00.757Z,100729.72
2023-04-02T15:56:58.703Z,100735.0
2023-04-02T16:01:55.510Z,100742.67
2023-04-02T16:06:59.559Z,100752.94
2023-04-02T16:11:52.249Z,100759.95
2023-04-02T16:16:50.781Z,100771.32
2023-04-02T16:21:55.814Z,100775.92
2023-04-02T16:26:58.254Z,100781.59000000001
2023-04-02T16:31:56.121Z,100789.61
2023-04-02T16:36:22.590Z,100793.40999999999
2023-04-02T16:36:57.671Z,100793.40999999999
2023-04-02T16:41:57.725Z,100804.45999999999
2023-04-02T16:46:58.377Z,100809.07999999999
2023-04-02T16:51:59.695Z,100821.79
2023-04-02T16:56:59.020Z,100824.0
2023-04-02T17:01:56.016Z,100831.0
2023-04-02T17:06:59.898Z,100841.13
2023-04-02T17:11:50.107Z,100842.86
2023-04-02T17:16:51.522Z,100839.01
2023-04-02T17:21:55.601Z,100845.34
2023-04-02T17:26:55.803Z,100851.0
2023-04-02T17:31:50.118Z,100858.89
2023-04-02T17:36:57.888Z,100868.76999999999
2023-04-02T17:41:53.149Z,100878.06
2023-04-02T17:46:56.687Z,100887.56
2023-04-02T17:51:53.209Z,100894.4
2023-04-02T17:57:02.231Z,100905.1
2023-04-02T18:01:56.913Z,100907.68000000001
2023-04-02T18:07:05.942Z,100899.68000000001
2023-04-02T18:12:01.166Z,100903.86
2023-04-02T18:16:53.575Z,100905.45
2023-04-02T18:21:58.180Z,100911.49
2023-04-02T18:26:56.841Z,100918.32
2023-04-02T18:31:53.578Z,100924.27
2023-04-02T18:37:04.259Z,100921.31000000001
2023-04-02T18:41:57.306Z,100926.56
2023-04-02T18:46:51.145Z,100935.65999999999
2023-04-02T18:51:53.648Z,100944.34
2023-04-02T18:56:48.379Z,100950.44
2023-04-02T19:01:53.146Z,100956.0
2023-04-02T19:06:53.584Z,100959.28
2023-04-02T19:11:48.050Z,100961.61
2023-04-02T19:17:00.362Z,100961.67
2023-04-02T19:22:07.672Z,100970.19
2023-04-02T19:26:53.160Z,100964.22
2023-04-02T19:31:54.077Z,100964.92
2023-04-02T19:36:53.701Z,100967.17
2023-04-02T19:41:51.423Z,100978.48
2023-04-02T19:46:50.373Z,100975.34000000001
2023-04-02T19:51:47.952Z,100978.68
2023-04-02T19:56:48.519Z,100986.94
2023-04-02T19:59:40.298Z,100986.94
2023-04-02T20:01:47.911Z,100985.79999999999
2023-04-02T20:06:47.930Z,100986.68000000001
2023-04-02T20:11:48.097Z,100992.89
2023-04-02T20:16:48.063Z,100994.51000000001
2023-04-02T20:21:47.877Z,100998.97
2023-04-02T20:26:52.227Z,100999.35
2023-04-02T20:31:47.864Z,101006.05
2023-04-02T20:36:48.063Z,101006.29000000001
2023-04-02T20:41:48.277Z,101016.64
2023-04-02T20:46:47.788Z,101017.26999999999
2023-04-02T20:48:19.178Z,101017.26999999999
2023-04-02T22:47:23.041Z,101127.8
2023-04-02T22:51:45.778Z,101141.78
2023-04-02T23:15:13.557Z,101141.07
2023-04-02T23:15:49.345Z,101141.07
2023-04-02T23:20:49.343Z,101146.59
2023-04-02T23:25:49.515Z,101149.72
2023-04-02T23:30:49.016Z,101153.09
2023-04-02T23:32:06.888Z,101153.09
2023-04-02T23:35:49.041Z,101159.89
2023-04-02T23:39:08.331Z,101159.89
2023-04-02T23:40:48.960Z,101167.64
2023-04-02T23:45:49.555Z,101166.04999999999
2023-04-02T23:46:05.382Z,101166.04999999999
2023-04-02T23:50:49.121Z,101165.01
2023-04-02T23:53:00.196Z,101165.01
2023-04-02T23:55:49.010Z,101169.25
